Time;durP1;ratioP1;P1;durP2;ratioP2;P2;SDS_P1;SDS_P2;PMS_P1;PMS_P2;Temp;Humidity;BMP_temperature;BMP_pressure;BME280_temperature;BME280_humidity;BME280_pressure;Samples;Min_cycle;Max_cycle;Signal;HPM_P1;HPM_P2
2022/02/21 00:02:19;;;;;;;2.70;0.70;;;10.30;99.90;;;;;;5039392;28;20472;-80
2022/02/21 00:04:48;;;;;;;0.50;0.50;;;10.30;99.90;;;;;;5033126;28;20461;-80
2022/02/21 00:07:16;;;;;;;0.50;0.50;;;10.30;99.90;;;;;;5031090;28;20834;-80
2022/02/21 00:09:44;;;;;;;0.70;0.50;;;10.30;99.90;;;;;;5037657;28;20454;-81
2022/02/21 00:12:14;;;;;;;0.63;0.60;;;10.40;99.90;;;;;;5039289;28;20998;-81
2022/02/21 00:14:44;;;;;;;0.60;0.60;;;10.40;99.90;;;;;;5037598;28;20998;-80
2022/02/21 00:17:13;;;;;;;1.20;0.57;;;10.40;99.90;;;;;;5038560;28;20458;-81
2022/02/21 00:19:41;;;;;;;5.20;0.60;;;10.40;99.90;;;;;;5040738;28;20464;-79
2022/02/21 00:22:09;;;;;;;1.10;0.70;;;10.30;99.90;;;;;;5034369;28;20478;-79
2022/02/21 00:24:37;;;;;;;2.60;0.70;;;10.40;99.90;;;;;;5037821;28;20459;-80
2022/02/21 00:27:06;;;;;;;1.03;0.60;;;10.30;99.90;;;;;;5045655;28;20534;-80
2022/02/21 00:29:34;;;;;;;2.23;0.60;;;10.40;99.90;;;;;;5044153;28;20482;-79
2022/02/21 00:32:04;;;;;;;2.00;0.73;;;10.50;99.90;;;;;;5040279;28;20511;-79
2022/02/21 00:34:33;;;;;;;0.83;0.60;;;10.60;99.90;;;;;;5041285;28;20482;-79
2022/02/21 00:37:01;;;;;;;4.47;0.83;;;10.70;99.90;;;;;;5047859;28;20455;-80
2022/02/21 00:39:29;;;;;;;3.87;0.80;;;10.70;99.90;;;;;;5043334;28;20448;-79
2022/02/21 00:41:57;;;;;;;1.07;0.60;;;10.40;99.90;;;;;;5034357;28;20486;-80
2022/02/21 00:44:25;;;;;;;2.20;0.50;;;10.60;99.90;;;;;;5036231;28;20471;-79
2022/02/21 00:46:56;;;;;;;0.97;0.57;;;10.50;99.90;;;;;;5037759;28;20463;-79
2022/02/21 00:49:25;;;;;;;2.90;0.60;;;10.40;99.90;;;;;;5042023;28;20458;-79
2022/02/21 00:51:54;;;;;;;0.70;0.70;;;10.40;99.90;;;;;;5042579;28;20492;-79
2022/02/21 00:54:22;;;;;;;2.93;0.90;;;10.40;99.90;;;;;;5043897;28;20847;-79
2022/02/21 00:56:50;;;;;;;3.30;1.03;;;10.40;99.90;;;;;;5042691;28;20468;-80
2022/02/21 00:59:18;;;;;;;1.23;1.23;;;10.40;99.90;;;;;;5035817;28;20459;-80
2022/02/21 01:01:47;;;;;;;0.57;0.57;;;10.60;99.90;;;;;;5044986;28;20483;-80
2022/02/21 01:04:15;;;;;;;1.33;1.03;;;10.50;99.90;;;;;;5043702;28;20453;-80
2022/02/21 01:06:45;;;;;;;0.87;0.57;;;10.20;99.90;;;;;;5042349;28;20459;-80
2022/02/21 01:09:13;;;;;;;1.40;0.70;;;10.60;1.00;;;;;;5036253;28;20827;-81
2022/02/21 01:11:41;;;;;;;1.73;0.80;;;10.30;1.00;;;;;;5039521;28;20468;-80
2022/02/21 01:14:09;;;;;;;5.07;1.00;;;10.30;1.00;;;;;;5045207;28;20565;-80
2022/02/21 01:16:38;;;;;;;0.50;0.50;;;10.20;1.00;;;;;;5043927;28;21081;-81
2022/02/21 01:19:06;;;;;;;0.60;0.53;;;10.00;1.00;;;;;;5036120;28;20464;-78
2022/02/21 01:21:34;;;;;;;2.40;0.90;;;10.00;1.00;;;;;;5042140;28;20471;-80
2022/02/21 01:24:04;;;;;;;0.60;0.50;;;9.90;1.00;;;;;;5042775;28;20921;-80
2022/02/21 01:26:33;;;;;;;2.13;0.67;;;9.90;1.00;;;;;;5039877;28;20447;-80
2022/02/21 01:29:01;;;;;;;1.67;0.50;;;10.00;1.00;;;;;;5036788;28;20842;-80
2022/02/21 01:31:30;;;;;;;3.03;0.73;;;10.30;1.00;;;;;;5042302;28;20460;-79
2022/02/21 01:33:58;;;;;;;2.00;0.60;;;9.90;55.00;;;;;;5042087;28;20838;-80
2022/02/21 01:36:27;;;;;;;1.30;0.50;;;10.00;1.00;;;;;;5043052;28;20451;-79
2022/02/21 01:38:56;;;;;;;0.60;0.60;;;10.00;1.00;;;;;;5037851;28;20450;-80
2022/02/21 01:41:25;;;;;;;0.73;0.60;;;10.00;1.00;;;;;;5037196;28;20497;-79
2022/02/21 01:44:05;;;;;;;1.43;0.50;;;9.90;1.00;;;;;;5053882;28;20458;-80
2022/02/21 01:46:33;;;;;;;0.87;0.70;;;9.70;54.00;;;;;;5041499;28;20558;-80
2022/02/21 01:49:02;;;;;;;0.77;0.60;;;9.80;22.90;;;;;;5033410;28;20464;-80
2022/02/21 01:51:30;;;;;;;1.40;0.70;;;9.80;1.00;;;;;;5038492;28;20449;-79
2022/02/21 01:54:00;;;;;;;2.70;1.83;;;9.70;1.00;;;;;;5045494;28;20490;-81
2022/02/21 01:56:30;;;;;;;0.60;0.40;;;9.70;1.00;;;;;;5042322;28;20480;-79
2022/02/21 01:58:58;;;;;;;0.50;0.50;;;9.70;1.00;;;;;;5035193;28;20471;-80
2022/02/21 02:01:26;;;;;;;0.57;0.57;;;9.70;1.00;;;;;;5039980;28;20481;-79
2022/02/21 02:03:54;;;;;;;0.67;0.60;;;9.70;1.00;;;;;;5043566;28;20533;-79
2022/02/21 02:06:23;;;;;;;0.97;0.50;;;9.80;1.00;;;;;;5038749;28;20450;-79
2022/02/21 02:08:52;;;;;;;0.70;0.50;;;9.90;1.00;;;;;;5039549;28;20534;-79
2022/02/21 02:11:20;;;;;;;0.43;0.43;;;9.80;1.00;;;;;;5039363;28;20487;-79
2022/02/21 02:13:51;;;;;;;1.30;0.40;;;9.90;1.00;;;;;;5037689;28;20457;-79
2022/02/21 02:16:20;;;;;;;1.50;0.67;;;9.90;1.00;;;;;;5040131;28;20516;-80
2022/02/21 02:18:48;;;;;;;1.27;0.50;;;9.90;1.00;;;;;;5040455;28;20483;-79
2022/02/21 02:21:21;;;;;;;0.40;0.40;;;9.90;1.00;;;;;;5035368;28;21415;-79
2022/02/21 02:23:52;;;;;;;1.37;1.27;;;10.30;1.00;;;;;;5038718;28;20454;-80
2022/02/21 02:26:21;;;;;;;0.53;0.43;;;9.80;1.00;;;;;;5035273;28;22288;-79
2022/02/21 02:28:52;;;;;;;1.03;0.60;;;9.90;1.00;;;;;;5040006;28;20454;-79
2022/02/21 02:31:20;;;;;;;2.10;0.73;;;9.80;1.00;;;;;;5050210;28;20468;-80
2022/02/21 02:33:48;;;;;;;1.90;0.60;;;9.80;1.00;;;;;;5044710;28;20463;-79
2022/02/21 02:36:17;;;;;;;0.67;0.60;;;9.80;1.00;;;;;;5037031;28;20481;-79
2022/02/21 02:38:45;;;;;;;0.60;0.47;;;10.00;1.00;;;;;;5042794;28;20452;-78
2022/02/21 02:41:15;;;;;;;2.20;0.70;;;9.90;1.00;;;;;;5041951;28;20455;-79
2022/02/21 02:43:43;;;;;;;0.47;0.47;;;9.90;1.00;;;;;;5039207;28;20465;-79
2022/02/21 02:46:11;;;;;;;0.93;0.60;;;9.80;1.00;;;;;;5040177;28;20442;-78
2022/02/21 02:48:39;;;;;;;1.33;0.50;;;9.90;1.00;;;;;;5042297;28;20451;-79
2022/02/21 02:51:07;;;;;;;4.17;0.60;;;10.00;1.00;;;;;;5044391;28;20452;-79
2022/02/21 02:53:36;;;;;;;0.47;0.40;;;9.90;1.00;;;;;;5040658;28;20620;-78
2022/02/21 02:56:04;;;;;;;0.70;0.50;;;10.00;1.00;;;;;;5036923;28;20473;-79
2022/02/21 02:58:34;;;;;;;1.13;0.40;;;10.10;1.00;;;;;;5037637;28;20451;-79
2022/02/21 03:01:02;;;;;;;2.20;0.53;;;10.10;1.00;;;;;;5044270;28;20462;-78
2022/02/21 03:03:30;;;;;;;2.50;0.67;;;10.00;1.00;;;;;;5035987;28;20607;-79
2022/02/21 03:05:58;;;;;;;2.50;1.13;;;9.90;1.00;;;;;;5046876;28;20463;-80
2022/02/21 03:08:26;;;;;;;1.03;0.47;;;10.10;1.00;;;;;;5045294;28;20539;-78
2022/02/21 03:10:55;;;;;;;1.80;0.50;;;10.10;1.00;;;;;;5046023;28;20464;-78
2022/02/21 03:13:23;;;;;;;0.50;0.50;;;10.10;1.00;;;;;;5042154;28;20585;-79
2022/02/21 03:15:52;;;;;;;0.40;0.40;;;10.20;1.00;;;;;;5035994;28;20463;-79
2022/02/21 03:18:21;;;;;;;1.03;0.50;;;10.00;1.00;;;;;;5048830;28;20855;-81
2022/02/21 03:20:49;;;;;;;0.50;0.50;;;10.10;1.00;;;;;;5041283;28;20454;-81
2022/02/21 03:23:17;;;;;;;1.13;0.50;;;10.00;1.00;;;;;;5045513;28;20503;-80
2022/02/21 03:25:45;;;;;;;0.40;0.40;;;9.90;6.20;;;;;;5041407;28;20962;-81
2022/02/21 03:28:13;;;;;;;0.57;0.50;;;9.90;91.50;;;;;;5047273;28;21126;-81
2022/02/21 03:30:42;;;;;;;0.90;0.43;;;10.00;11.90;;;;;;5049752;28;20452;-81
2022/02/21 03:33:12;;;;;;;2.30;0.50;;;9.80;99.90;;;;;;5047380;28;20507;-81
2022/02/21 03:35:41;;;;;;;0.60;0.60;;;9.80;99.90;;;;;;5050705;28;20507;-81
2022/02/21 03:38:09;;;;;;;0.60;0.47;;;9.80;99.90;;;;;;5037488;28;20455;-81
2022/02/21 03:40:37;;;;;;;0.53;0.40;;;9.80;99.90;;;;;;5049589;28;20542;-80
2022/02/21 03:43:05;;;;;;;1.67;0.73;;;9.90;99.90;;;;;;5046822;28;20482;-81
2022/02/21 03:45:34;;;;;;;1.00;0.40;;;10.00;1.00;;;;;;5044987;28;20819;-81
2022/02/21 03:48:02;;;;;;;0.50;0.40;;;10.20;99.90;;;;;;5049693;28;20449;-81
2022/02/21 03:50:32;;;;;;;0.40;0.40;;;10.20;1.00;;;;;;5046381;28;20448;-81
2022/02/21 03:53:00;;;;;;;0.40;0.40;;;10.00;1.00;;;;;;5046137;28;20996;-81
2022/02/21 03:55:28;;;;;;;0.40;0.40;;;9.40;1.00;;;;;;5042533;28;20484;-80
2022/02/21 03:57:57;;;;;;;0.43;0.40;;;9.40;1.00;;;;;;5045489;28;20461;-80
2022/02/21 04:00:25;;;;;;;0.30;0.30;;;9.20;1.00;;;;;;5046473;28;20463;-80
2022/02/21 04:02:54;;;;;;;0.40;0.40;;;8.90;1.00;;;;;;5043513;28;20474;-80
2022/02/21 04:05:22;;;;;;;0.33;0.33;;;8.60;1.00;;;;;;5042023;28;20594;-81
2022/02/21 04:07:52;;;;;;;0.40;0.40;;;8.60;1.00;;;;;;5048457;28;20450;-80
2022/02/21 04:10:20;;;;;;;0.30;0.30;;;8.50;1.00;;;;;;5047424;28;20463;-80
2022/02/21 04:12:48;;;;;;;0.30;0.30;;;8.40;99.90;;;;;;5046031;28;20512;-81
2022/02/21 04:15:18;;;;;;;1.00;0.40;;;8.20;99.90;;;;;;5043109;28;20576;-80
2022/02/21 04:17:50;;;;;;;0.40;0.40;;;8.00;99.90;;;;;;5042006;28;20477;-81
2022/02/21 04:20:22;;;;;;;0.60;0.47;;;7.80;99.90;;;;;;5045810;28;20462;-80
2022/02/21 04:22:52;;;;;;;0.50;0.50;;;7.90;99.90;;;;;;5048732;28;20505;-81
2022/02/21 04:25:20;;;;;;;0.97;0.40;;;7.70;99.90;;;;;;5040705;28;20537;-79
2022/02/21 04:27:50;;;;;;;1.60;0.60;;;7.70;99.90;;;;;;5040976;28;20537;-81
2022/02/21 04:30:20;;;;;;;0.43;0.40;;;7.70;99.90;;;;;;5046038;28;20456;-79
2022/02/21 04:32:50;;;;;;;0.50;0.50;;;7.70;99.90;;;;;;5040691;28;20468;-81
2022/02/21 04:35:19;;;;;;;0.43;0.43;;;7.70;99.90;;;;;;5038514;28;20869;-79
2022/02/21 04:37:48;;;;;;;1.60;0.40;;;7.60;99.90;;;;;;5044588;28;20449;-81
2022/02/21 04:40:20;;;;;;;1.70;0.70;;;7.60;99.90;;;;;;5044449;28;20449;-83
2022/02/21 04:42:50;;;;;;;1.67;0.73;;;7.60;99.90;;;;;;5049041;28;20473;-81
2022/02/21 04:45:19;;;;;;;0.60;0.50;;;7.70;99.90;;;;;;5045601;28;20428;-82
2022/02/21 04:47:47;;;;;;;0.53;0.53;;;7.80;99.90;;;;;;5049886;28;20879;-81
2022/02/21 04:50:16;;;;;;;0.50;0.50;;;7.90;99.90;;;;;;5052270;28;20503;-81
2022/02/21 04:52:45;;;;;;;0.93;0.70;;;8.10;99.90;;;;;;5044126;28;20472;-82
2022/02/21 04:55:14;;;;;;;1.13;0.60;;;8.10;99.90;;;;;;5046488;28;20459;-81
2022/02/21 04:57:44;;;;;;;0.60;0.60;;;8.10;99.90;;;;;;5043456;28;20456;-81
2022/02/21 05:00:16;;;;;;;0.50;0.50;;;8.20;99.90;;;;;;5047586;28;20467;-82
2022/02/21 05:02:44;;;;;;;2.00;0.73;;;8.30;99.90;;;;;;5049649;28;20481;-78
2022/02/21 05:05:13;;;;;;;2.30;0.77;;;8.40;99.90;;;;;;5044349;28;20603;-81
2022/02/21 05:07:43;;;;;;;1.10;0.63;;;8.30;99.90;;;;;;5063544;28;20874;-81
2022/02/21 05:10:12;;;;;;;1.13;1.03;;;8.30;99.90;;;;;;5050663;28;20444;-81
2022/02/21 05:12:40;;;;;;;1.17;0.70;;;8.50;99.90;;;;;;5052291;28;20497;-82
2022/02/21 05:15:12;;;;;;;1.23;0.60;;;8.60;99.90;;;;;;5042401;28;20492;-81
2022/02/21 05:17:42;;;;;;;0.80;0.60;;;8.30;99.90;;;;;;5046796;28;20529;-81
2022/02/21 05:20:12;;;;;;;2.37;0.63;;;8.40;99.90;;;;;;5047412;28;21041;-81
2022/02/21 05:22:40;;;;;;;1.07;0.80;;;8.40;99.90;;;;;;5049328;28;20473;-80
2022/02/21 05:25:09;;;;;;;2.80;0.80;;;8.30;99.90;;;;;;5041301;28;20458;-81
2022/02/21 05:27:39;;;;;;;1.43;0.67;;;8.20;99.90;;;;;;5045683;28;20553;-81
2022/02/21 05:30:15;;;;;;;1.00;1.00;;;8.30;99.90;;;;;;5041911;28;20454;-80
2022/02/21 05:32:43;;;;;;;1.77;0.90;;;8.40;99.90;;;;;;5045057;28;20581;-82
2022/02/21 05:35:13;;;;;;;1.60;1.23;;;8.50;99.90;;;;;;5042233;28;20474;-81
2022/02/21 05:37:41;;;;;;;2.70;1.10;;;8.50;99.90;;;;;;5047659;28;20611;-80
2022/02/21 05:40:10;;;;;;;1.27;0.90;;;8.50;99.90;;;;;;5048180;28;20508;-82
2022/02/21 05:42:39;;;;;;;2.10;0.70;;;8.60;99.90;;;;;;5045043;28;20474;-80
2022/02/21 05:45:08;;;;;;;2.10;0.90;;;8.50;99.90;;;;;;5039369;28;20487;-80
2022/02/21 05:47:37;;;;;;;4.73;0.97;;;8.50;99.90;;;;;;5040431;28;21000;-80
2022/02/21 05:50:06;;;;;;;3.93;0.80;;;8.50;99.90;;;;;;5048234;28;20446;-78
2022/02/21 05:52:34;;;;;;;2.30;0.60;;;8.50;99.90;;;;;;5046359;28;20477;-81
2022/02/21 05:55:03;;;;;;;7.53;1.00;;;8.50;99.90;;;;;;5046493;28;20967;-82
2022/02/21 05:57:31;;;;;;;3.30;1.10;;;8.50;99.90;;;;;;5045001;28;20478;-82
2022/02/21 06:00:02;;;;;;;2.53;0.90;;;8.30;99.90;;;;;;5049852;28;20462;-82
2022/02/21 06:02:30;;;;;;;1.77;0.70;;;8.30;99.90;;;;;;5041521;28;20509;-82
2022/02/21 06:05:00;;;;;;;3.53;0.90;;;8.20;99.90;;;;;;5041716;28;20464;-81
2022/02/21 06:07:28;;;;;;;5.17;0.97;;;8.30;99.90;;;;;;5046407;28;21060;-82
2022/02/21 06:09:56;;;;;;;2.83;0.90;;;8.30;99.90;;;;;;5047664;28;20958;-83
2022/02/21 06:12:25;;;;;;;3.70;1.30;;;8.30;99.90;;;;;;5048724;28;20884;-84
2022/02/21 06:14:53;;;;;;;1.37;0.60;;;8.50;99.90;;;;;;5043638;28;20446;-83
2022/02/21 06:17:21;;;;;;;3.13;0.70;;;8.40;99.90;;;;;;5048643;28;20574;-81
2022/02/21 06:19:49;;;;;;;2.20;0.80;;;8.50;99.90;;;;;;5044177;28;20455;-81
2022/02/21 06:22:20;;;;;;;3.37;1.00;;;8.30;99.90;;;;;;5040299;28;20606;-83
2022/02/21 06:24:48;;;;;;;0.70;0.60;;;8.20;99.90;;;;;;5037172;28;20453;-81
2022/02/21 06:27:17;;;;;;;2.80;1.10;;;8.00;99.90;;;;;;5032099;28;21231;-84
2022/02/21 06:29:48;;;;;;;5.77;1.00;;;8.00;99.90;;;;;;5036024;28;20457;-81
2022/02/21 06:32:17;;;;;;;1.33;0.70;;;8.10;99.90;;;;;;5037910;28;20855;-81
2022/02/21 06:34:48;;;;;;;8.60;1.20;;;8.10;99.90;;;;;;5040600;28;21265;-81
2022/02/21 06:37:17;;;;;;;3.10;0.80;;;8.20;99.90;;;;;;5038732;28;20549;-82
2022/02/21 06:39:46;;;;;;;2.60;0.87;;;8.30;99.90;;;;;;5033775;28;20444;-80
2022/02/21 06:42:14;;;;;;;1.43;0.87;;;8.40;99.90;;;;;;5028641;28;20456;-83
2022/02/21 06:44:42;;;;;;;2.90;1.00;;;8.40;99.90;;;;;;5028848;28;20464;-81
2022/02/21 06:47:11;;;;;;;4.20;1.83;;;8.40;99.90;;;;;;5036483;28;20693;-82
2022/02/21 06:49:39;;;;;;;1.57;0.90;;;8.50;99.90;;;;;;5040871;28;20462;-82
2022/02/21 06:52:08;;;;;;;2.40;0.87;;;8.60;99.90;;;;;;5035499;28;20470;-81
2022/02/21 06:54:38;;;;;;;1.77;1.07;;;8.30;99.90;;;;;;5033656;28;20463;-81
2022/02/21 06:57:06;;;;;;;5.20;0.97;;;8.30;99.90;;;;;;5038130;28;20494;-80
2022/02/21 06:59:34;;;;;;;2.60;0.77;;;8.10;99.90;;;;;;5043747;28;20450;-81
2022/02/21 07:02:02;;;;;;;1.40;0.90;;;8.10;99.90;;;;;;5040912;28;20493;-82
2022/02/21 07:04:31;;;;;;;6.50;1.43;;;8.00;99.90;;;;;;5032777;28;20466;-81
2022/02/21 07:06:59;;;;;;;5.87;0.80;;;8.10;99.90;;;;;;5034407;28;20457;-81
2022/02/21 07:09:27;;;;;;;2.77;0.87;;;8.10;99.90;;;;;;5032630;28;20483;-82
2022/02/21 07:11:56;;;;;;;3.27;0.77;;;8.00;99.90;;;;;;5038516;28;20469;-81
2022/02/21 07:14:25;;;;;;;2.50;0.93;;;7.90;99.90;;;;;;5036018;28;20461;-82
2022/02/21 07:16:53;;;;;;;1.27;0.90;;;8.00;99.90;;;;;;5036387;28;20482;-81
2022/02/21 07:19:24;;;;;;;1.77;0.67;;;7.90;99.90;;;;;;5033403;28;21231;-81
2022/02/21 07:21:53;;;;;;;2.20;1.50;;;7.90;99.90;;;;;;5040369;28;20465;-81
2022/02/21 07:24:21;;;;;;;5.37;1.07;;;7.90;99.90;;;;;;5039687;28;20458;-81
2022/02/21 07:26:49;;;;;;;0.97;0.90;;;8.10;99.90;;;;;;5036199;28;20457;-81
2022/02/21 07:29:19;;;;;;;5.73;1.20;;;7.80;99.90;;;;;;5052073;28;20471;-81
2022/02/21 07:31:47;;;;;;;1.23;0.90;;;7.80;99.90;;;;;;5041799;28;21192;-80
2022/02/21 07:34:15;;;;;;;4.93;1.10;;;7.80;99.90;;;;;;5040015;28;20533;-81
2022/02/21 07:36:44;;;;;;;2.77;0.80;;;7.90;99.90;;;;;;5037306;28;20456;-81
2022/02/21 07:39:12;;;;;;;8.50;1.27;;;7.80;99.90;;;;;;5037298;28;20451;-81
2022/02/21 07:41:41;;;;;;;2.70;1.40;;;7.90;99.90;;;;;;5040806;28;20481;-81
2022/02/21 07:44:09;;;;;;;4.50;1.20;;;7.80;99.90;;;;;;5036715;28;20455;-80
2022/02/21 07:46:39;;;;;;;5.57;2.17;;;7.90;99.90;;;;;;5041538;28;20450;-80
2022/02/21 07:49:08;;;;;;;3.53;0.93;;;7.80;99.90;;;;;;5047078;28;20459;-81
2022/02/21 07:51:36;;;;;;;3.27;1.10;;;7.80;99.90;;;;;;5046455;28;20459;-81
2022/02/21 07:54:04;;;;;;;6.40;2.37;;;8.00;99.90;;;;;;5046633;28;20450;-81
2022/02/21 07:56:53;;;;;;;3.00;0.90;;;8.20;99.90;;;;;;5044998;28;20454;-81
2022/02/21 07:59:21;;;;;;;2.47;1.10;;;8.40;99.90;;;;;;5042371;28;20453;-82
2022/02/21 08:01:51;;;;;;;6.17;1.03;;;8.60;99.90;;;;;;5044312;28;20496;-82
2022/02/21 08:04:20;;;;;;;3.33;2.57;;;8.70;99.90;;;;;;5047822;28;20453;-82
2022/02/21 08:06:48;;;;;;;3.23;0.90;;;8.90;99.90;;;;;;5043074;28;20457;-81
2022/02/21 08:09:16;;;;;;;3.80;1.17;;;9.00;99.90;;;;;;5045164;28;21053;-81
2022/02/21 08:11:44;;;;;;;3.57;1.07;;;9.10;99.90;;;;;;5044985;28;20467;-80
2022/02/21 08:14:13;;;;;;;4.23;1.37;;;9.20;99.90;;;;;;5048143;28;20897;-81
2022/02/21 08:16:41;;;;;;;1.83;0.80;;;9.30;99.90;;;;;;5044762;28;20467;-81
2022/02/21 08:19:11;;;;;;;2.00;0.80;;;9.30;99.90;;;;;;5051290;28;20481;-81
2022/02/21 08:21:39;;;;;;;6.90;1.07;;;9.50;99.90;;;;;;5045701;28;20542;-81
2022/02/21 08:24:08;;;;;;;7.17;1.00;;;9.60;99.90;;;;;;5049286;28;20458;-82
2022/02/21 08:26:36;;;;;;;2.27;1.10;;;9.60;99.90;;;;;;5047246;28;20477;-81
2022/02/21 08:29:04;;;;;;;9.50;1.23;;;9.70;99.90;;;;;;5046585;28;20462;-81
2022/02/21 08:31:33;;;;;;;1.47;1.10;;;9.80;99.90;;;;;;5040780;28;20469;-80
2022/02/21 08:34:01;;;;;;;4.00;0.87;;;9.90;99.90;;;;;;5075095;28;20463;-80
2022/02/21 08:36:30;;;;;;;1.77;0.80;;;9.90;99.90;;;;;;5046384;28;20459;-81
2022/02/21 08:38:59;;;;;;;2.87;1.37;;;10.00;99.90;;;;;;5041053;28;20493;-82
2022/02/21 08:41:27;;;;;;;1.13;0.90;;;10.00;99.90;;;;;;5042529;28;20459;-81
2022/02/21 08:43:56;;;;;;;4.50;1.37;;;10.10;99.90;;;;;;5050691;28;20473;-81
2022/02/21 08:46:26;;;;;;;5.30;1.17;;;10.40;99.90;;;;;;5046882;28;20515;-80
2022/02/21 08:49:03;;;;;;;4.70;1.20;;;10.30;99.90;;;;;;5050088;28;20546;-81
2022/02/21 08:51:34;;;;;;;5.50;1.20;;;10.10;99.90;;;;;;5042983;28;20483;-81
2022/02/21 08:54:03;;;;;;;3.20;1.40;;;10.10;99.90;;;;;;5045307;28;20486;-81
2022/02/21 08:56:34;;;;;;;4.37;1.17;;;10.10;99.90;;;;;;5050424;28;20451;-81
2022/02/21 08:59:02;;;;;;;1.20;1.00;;;9.90;99.90;;;;;;5049534;28;20483;-81
2022/02/21 09:01:31;;;;;;;2.03;0.90;;;9.60;99.90;;;;;;5043176;28;21272;-81
2022/02/21 09:03:59;;;;;;;2.83;1.40;;;9.50;99.90;;;;;;5046779;28;20458;-81
2022/02/21 09:06:27;;;;;;;6.50;1.00;;;9.30;99.90;;;;;;5046917;28;20899;-81
2022/02/21 09:08:57;;;;;;;5.23;1.30;;;9.20;99.90;;;;;;5044852;28;20448;-80
2022/02/21 09:11:25;;;;;;;3.43;1.20;;;9.40;99.90;;;;;;5048060;28;20455;-81
2022/02/21 09:13:54;;;;;;;3.77;1.00;;;9.50;99.90;;;;;;5049339;28;20546;-78
2022/02/21 09:16:22;;;;;;;4.53;1.00;;;9.60;99.90;;;;;;5047452;28;20460;-80
2022/02/21 09:18:51;;;;;;;3.60;1.17;;;9.70;99.90;;;;;;5045012;28;20475;-80
2022/02/21 09:21:21;;;;;;;6.80;1.00;;;9.90;99.90;;;;;;5041678;28;20964;-80
2022/02/21 09:23:50;;;;;;;4.20;1.27;;;10.20;99.90;;;;;;5051173;28;20934;-82
2022/02/21 09:26:19;;;;;;;2.20;0.90;;;10.20;99.90;;;;;;5052079;28;20461;-83
2022/02/21 09:28:48;;;;;;;5.10;1.00;;;10.40;99.90;;;;;;5042908;28;20484;-81
2022/02/21 09:31:17;;;;;;;2.33;1.07;;;10.50;99.90;;;;;;5049472;28;20484;-83
2022/02/21 09:33:45;;;;;;;2.70;1.00;;;10.60;99.90;;;;;;5043955;28;20523;-82
2022/02/21 09:36:13;;;;;;;6.17;0.83;;;10.70;99.90;;;;;;5043593;28;20453;-82
2022/02/21 09:38:42;;;;;;;4.90;1.10;;;10.70;99.90;;;;;;5040250;28;20503;-81
2022/02/21 09:41:10;;;;;;;2.70;1.10;;;10.70;99.90;;;;;;5043681;28;20479;-82
2022/02/21 09:43:40;;;;;;;5.50;1.10;;;10.70;99.90;;;;;;5051345;28;21092;-81
2022/02/21 09:46:11;;;;;;;3.17;0.90;;;10.70;99.90;;;;;;5041698;28;20884;-83
2022/02/21 09:48:41;;;;;;;3.80;1.13;;;10.60;99.90;;;;;;5046514;28;20816;-81
2022/02/21 09:51:09;;;;;;;1.70;1.20;;;10.40;99.90;;;;;;5047136;28;20921;-81
2022/02/21 09:53:40;;;;;;;2.80;2.03;;;10.20;99.90;;;;;;5048393;28;20461;-82
2022/02/21 09:56:08;;;;;;;3.80;1.00;;;10.10;99.90;;;;;;5043141;28;20444;-80
2022/02/21 09:58:37;;;;;;;3.63;1.20;;;10.00;99.90;;;;;;5042082;28;20467;-81
2022/02/21 10:01:07;;;;;;;4.00;1.00;;;10.30;99.90;;;;;;5047388;28;20489;-81
2022/02/21 10:03:43;;;;;;;2.93;0.80;;;10.30;99.90;;;;;;5045226;28;20461;-82
2022/02/21 10:06:20;;;;;;;4.33;1.10;;;10.50;99.90;;;;;;5044166;28;20443;-81
2022/02/21 10:08:52;;;;;;;3.40;1.17;;;10.60;99.90;;;;;;5041045;28;21318;-83
2022/02/21 10:11:35;;;;;;;3.23;0.93;;;10.60;99.90;;;;;;5046052;28;21296;-81
2022/02/21 10:14:05;;;;;;;2.00;0.87;;;10.70;99.90;;;;;;5050345;28;21158;-81
2022/02/21 10:16:42;;;;;;;2.47;1.07;;;10.80;99.90;;;;;;5046907;28;20502;-82
2022/02/21 10:19:17;;;;;;;3.00;1.60;;;10.70;99.90;;;;;;5043132;28;20468;-82
2022/02/21 10:21:57;;;;;;;3.67;0.87;;;10.70;98.00;;;;;;5040707;28;20474;-81
2022/02/21 10:24:25;;;;;;;7.33;1.20;;;10.90;98.00;;;;;;5036397;28;20464;-81
2022/02/21 10:26:56;;;;;;;1.70;0.80;;;11.00;97.60;;;;;;5039596;28;21020;-81
2022/02/21 10:29:24;;;;;;;5.03;2.03;;;11.40;96.70;;;;;;5046900;28;20530;-81
2022/02/21 10:32:08;;;;;;;3.77;0.97;;;11.70;97.50;;;;;;5058927;28;20488;-81
2022/02/21 10:34:37;;;;;;;3.10;1.00;;;12.00;93.20;;;;;;5037106;28;20451;-85
2022/02/21 10:37:07;;;;;;;1.10;0.70;;;12.20;92.70;;;;;;5042317;28;20463;-81
2022/02/21 10:39:36;;;;;;;2.47;1.00;;;12.30;91.80;;;;;;5045227;28;20477;-81
2022/02/21 10:42:07;;;;;;;1.77;0.93;;;12.40;91.10;;;;;;5043152;28;20490;-82
2022/02/21 10:44:37;;;;;;;4.23;1.03;;;12.60;89.70;;;;;;5037994;28;20456;-81
2022/02/21 10:47:13;;;;;;;3.17;1.00;;;12.90;90.80;;;;;;5047305;28;20482;-81
2022/02/21 10:49:51;;;;;;;3.27;0.90;;;13.30;91.40;;;;;;5044527;28;20464;-81
2022/02/21 10:52:22;;;;;;;2.00;0.80;;;13.30;87.20;;;;;;5060761;28;20486;-81
2022/02/21 10:54:51;;;;;;;2.03;0.90;;;13.50;88.50;;;;;;5044624;28;20457;-80
2022/02/21 10:57:23;;;;;;;4.60;1.20;;;13.80;84.90;;;;;;5044891;28;20531;-82
2022/02/21 10:59:51;;;;;;;1.73;0.83;;;13.80;79.20;;;;;;5048849;28;20482;-82
2022/02/21 11:02:22;;;;;;;4.30;1.10;;;13.90;76.80;;;;;;5043591;28;20501;-81
2022/02/21 11:04:52;;;;;;;1.90;0.90;;;14.20;94.00;;;;;;5044851;28;20978;-81
2022/02/21 11:07:22;;;;;;;1.53;1.13;;;14.30;78.00;;;;;;5044466;28;20549;-80
2022/02/21 11:09:52;;;;;;;2.13;0.70;;;14.40;76.90;;;;;;5041239;28;20474;-81
2022/02/21 11:12:23;;;;;;;6.30;2.07;;;14.30;77.40;;;;;;5044148;28;20482;-81
2022/02/21 11:14:52;;;;;;;2.10;1.10;;;14.00;66.30;;;;;;5036842;28;20459;-81
2022/02/21 11:17:21;;;;;;;2.33;1.00;;;13.60;63.30;;;;;;5040455;28;20459;-79
2022/02/21 11:19:51;;;;;;;3.90;1.53;;;13.60;69.60;;;;;;5041038;28;20481;-81
2022/02/21 11:22:19;;;;;;;3.53;0.83;;;13.70;72.10;;;;;;5047015;28;20487;-81
2022/02/21 11:24:52;;;;;;;2.93;0.97;;;13.00;55.90;;;;;;5041950;28;20447;-81
2022/02/21 11:27:34;;;;;;;5.90;0.97;;;12.30;48.20;;;;;;5035497;28;20471;-81
2022/02/21 11:30:08;;;;;;;3.33;0.70;;;11.60;43.10;;;;;;5040025;28;20451;-81
2022/02/21 11:32:40;;;;;;;1.40;1.10;;;11.60;44.80;;;;;;5043828;28;20484;-81
2022/02/21 11:35:15;;;;;;;2.40;1.07;;;11.70;49.40;;;;;;5037181;28;20545;-79
2022/02/21 11:37:45;;;;;;;3.90;0.90;;;11.90;53.40;;;;;;5042321;28;21103;-81
2022/02/21 11:40:16;;;;;;;0.67;0.60;;;12.30;61.10;;;;;;5044258;28;20228;-81
2022/02/21 11:42:49;;;;;;;2.73;0.70;;;12.80;65.10;;;;;;5045798;28;20489;-82
2022/02/21 11:45:27;;;;;;;4.73;0.80;;;13.00;64.40;;;;;;5041651;28;20448;-81
2022/02/21 11:48:01;;;;;;;1.80;0.77;;;13.10;64.50;;;;;;5047197;28;20453;-81
2022/02/21 11:50:32;;;;;;;3.07;0.60;;;13.00;62.60;;;;;;5047400;28;20439;-79
2022/02/21 11:53:20;;;;;;;0.83;0.73;;;13.10;65.80;;;;;;5049967;28;20456;-79
2022/02/21 11:55:50;;;;;;;2.50;1.40;;;12.90;58.30;;;;;;5075831;28;20457;-81
2022/02/21 11:58:37;;;;;;;3.23;0.60;;;12.80;58.60;;;;;;5055410;28;20458;-80
2022/02/21 12:01:19;;;;;;;2.40;0.90;;;12.80;54.70;;;;;;5040212;28;20553;-80
2022/02/21 12:04:15;;;;;;;2.00;0.90;;;13.00;54.60;;;;;;5040627;28;20663;-83
2022/02/21 12:06:58;;;;;;;2.47;0.83;;;13.00;52.70;;;;;;5041486;28;20460;-81
2022/02/21 12:09:27;;;;;;;1.53;0.60;;;13.10;51.50;;;;;;5040973;28;20455;-80
2022/02/21 12:12:22;;;;;;;3.37;1.07;;;12.90;47.30;;;;;;5054250;28;20474;-80
2022/02/21 12:15:13;;;;;;;0.90;0.60;;;12.40;37.40;;;;;;5049404;28;20466;-80
2022/02/21 12:17:41;;;;;;;1.07;0.83;;;12.10;35.50;;;;;;5041640;28;20593;-80
2022/02/21 12:20:39;;;;;;;2.10;1.00;;;11.80;34.80;;;;;;5042641;28;20491;-79
2022/02/21 12:23:10;;;;;;;4.17;0.90;;;11.70;33.00;;;;;;5047360;28;20467;-79
2022/02/21 12:25:40;;;;;;;2.07;1.37;;;11.50;31.10;;;;;;5043249;28;20459;-80
2022/02/21 12:28:21;;;;;;;3.93;0.83;;;11.40;32.00;;;;;;5047504;28;21083;-82
2022/02/21 12:30:55;;;;;;;1.30;0.80;;;11.20;27.70;;;;;;5048706;28;20448;-80
2022/02/21 12:33:26;;;;;;;1.47;1.10;;;11.00;27.10;;;;;;5044478;28;20472;-79
2022/02/21 12:35:58;;;;;;;2.53;0.90;;;10.70;25.80;;;;;;5045906;28;20484;-79
2022/02/21 12:38:29;;;;;;;0.80;0.80;;;10.60;25.40;;;;;;5046446;28;20474;-81
2022/02/21 12:41:02;;;;;;;1.23;0.60;;;10.60;26.30;;;;;;5049107;28;20478;-81
2022/02/21 12:43:52;;;;;;;1.43;0.60;;;10.50;25.10;;;;;;5039527;28;20852;-79
2022/02/21 12:46:22;;;;;;;1.17;1.07;;;10.30;23.80;;;;;;5045954;28;20513;-81
2022/02/21 12:48:51;;;;;;;2.83;0.70;;;10.50;27.50;;;;;;5048544;28;20455;-80
2022/02/21 12:51:23;;;;;;;2.60;0.60;;;10.40;27.40;;;;;;5045965;28;21833;-80
2022/02/21 12:54:00;;;;;;;2.60;0.60;;;10.20;25.40;;;;;;5042480;28;20456;-80
2022/02/21 12:56:45;;;;;;;3.17;0.70;;;10.40;27.50;;;;;;5041596;28;20556;-79
2022/02/21 12:59:16;;;;;;;3.53;0.70;;;10.20;27.50;;;;;;5051960;28;20443;-81
2022/02/21 13:01:45;;;;;;;1.60;0.80;;;10.20;27.30;;;;;;5047834;28;20531;-80
2022/02/21 13:04:13;;;;;;;5.77;0.80;;;10.20;30.20;;;;;;5048330;28;20465;-79
2022/02/21 13:06:43;;;;;;;3.50;0.60;;;10.30;32.20;;;;;;5042546;28;20451;-81
2022/02/21 13:09:11;;;;;;;1.53;0.70;;;10.40;32.10;;;;;;5037748;28;20465;-80